Aérodrome :
LOGIN :

S'inscrire | Disclaimer

   EN    FR    IT 

 










Légende :    VFR   VFR Marginal   IFR   IFR Intensif   IFR Très Intensif
Visi : 
Plafond : 
>= 8 km
>= 3000ft
5 à 8 km
1000 à 3000 ft
1500m à 5 km
500 à 1000 ft
800 à 1500m
200 à 500 ft
< 800m
< 200 ft
Symboles :   Orages  Brouillard  Fortes neiges  Fortes précipitations  Vent > 20 kt
SIGMETs :   Divers  Orages  Givrage  Turbulence  Onde Orograph.  Cendres Volcan.







- Altitude de l'aérodrome : 179 ft


LIPI - Rivolto AFB Udine

DERNIER METAR :
  • 140655Z /////KT 1200 -RA BR BKN022 SCT030 03/02 Q1009 RMK OVC VIS MIN 1200 WIND THR06 36003KT WIND THR24 36002KT AMB

METARs EXPIRÉS :
  • 140615Z /////KT 2000 -RA BR BKN020 SCT030 03/02 Q1009 RMK OVC VIS MIN 2000 WIND THR06 02003KT WIND THR24 03002KT YLO
  • 140555Z /////KT 7000 -RA BKN020 SCT030 03/02 Q1009 RMK OVC VIS MIN 7000 WIND THR06 04003KT WIND THR24 04003KT WHT

TAF TAF LIPI
Valide du 14 à 06h jusqu'au 14 à 15h UTC


140500Z 1406/1415 05006KT 9999 BKN025
TEMPO 1406/1408 5000 RA BR
Pas de NOTAMs connus pour ce terrain.



MET'MAP, la Météo Aéronautique d'un coup d'oeil ! - Copyright ORBIFLY Décembre 2007 - Disclaimer

ORBIFLY MET'MAP TEAM :

Programmation & Développement : Alexandra Zaïnal
Conception & Développement : Baudouin d'Aumeries
Co-Programmation & Développement : Marc-Olivier Méhu
Soutien technique & logistique : Manuel Goepfert

Contact : metmap@orbifly.com




SOURCES & CREDITS :

   NOAA